map of LFPM home
LFPM - Airport
Location
City:  Melun, Īle-de-France, France
Name:Villaroche
ICAO:LFPM

Details
Type:Airport (Aerodrome, Airfield)
Use:Military
Latitude:48°36'19"N (48.605283)
Longitude:2°40'15"E (2.670781)
Elevation:302 ft (92 m)
Variation:1.04°E (WMM2015v2 magnetic declination)
0.17° annual change
Runways:2
Longest:6480 × 148 ft (1975 × 45 m)

Time
Time Zone:UTC+1 (DST+2)
Local Time:

Weather
METAR:LFPM 041400Z AUTO 20008KT 9999 FEW041 SCT048 BKN068 03/00 Q1026

Related Locations
Nearby:
Farthest:CHT: 12096 mi / 19467 km
Waitangi [Tuuta], CIT, NZ

Find:

   beyond  
but within

Other Information
Maps:
NOTAMs:
Links:
Sources:

  
  • flag of France
  • flag of Īle-de-France
  

Sectional Chart

Flight Planning
at skyvector.com

Satellite Image

Google Maps Satellite view

 

Copyright © 2004-2019 Karl L. Swartz. All rights reserved.
The Great Circle Mapper name and logo are trademarks of the Great Circle Mapper.
All other trademarks mentioned herein belong to their respective owners.
Please see credits for attibutions and further copyright information.

  Follow gcmap on Facebook Follow gcmap on Twitter GCmap on LinkedIn

hCard Microformat

Geo Microformat